Time,TemperatureF,DewpointF,PressureIn,WindDirection,WindDirectionDegrees,WindSpeedMPH,WindSpeedGustMPH,Humidity,HourlyPrecipIn,Conditions,Clouds,dailyrainin,SolarRadiationWatts/m^2,SoftwareType,DateUTC
2013-01-19 00:02:00,46.0,45.0,-100.00,WSW,243,2.0,4.0,96,0.00,,,0.00,0.000000,,2013-01-19 10:02:00,
2013-01-19 00:12:00,46.0,45.0,-100.00,WSW,243,2.0,4.0,96,0.00,,,0.00,0.000000,,2013-01-19 10:12:00,
2013-01-19 00:22:00,46.0,45.0,-100.00,WSW,243,2.0,4.0,96,0.00,,,0.00,0.000000,,2013-01-19 10:22:00,
2013-01-19 00:32:00,46.0,45.0,-100.00,WSW,243,2.0,4.0,96,0.00,,,0.00,0.000000,,2013-01-19 10:32:00,
2013-01-19 01:02:00,48.0,47.0,-100.00,SSW,209,2.0,6.0,96,0.00,,,0.00,0.000000,,2013-01-19 11:02:00,
2013-01-19 01:12:00,48.0,47.0,-100.00,SSW,209,2.0,6.0,96,0.00,,,0.00,0.000000,,2013-01-19 11:12:00,
2013-01-19 02:53:00,42.0,40.0,-100.00,NW,305,3.0,10.0,93,0.00,,,-99.99,0.000000,,2013-01-19 12:53:00,
2013-01-19 03:02:00,42.0,40.0,-100.00,NW,305,3.0,10.0,93,0.00,,,-99.99,0.000000,,2013-01-19 13:02:00,
2013-01-19 03:12:00,42.0,40.0,-100.00,NW,305,3.0,10.0,93,0.00,,,-99.99,0.000000,,2013-01-19 13:12:00,
2013-01-19 03:22:00,42.0,40.0,-100.00,NW,305,3.0,10.0,93,0.00,,,-99.99,0.000000,,2013-01-19 13:22:00,
2013-01-19 03:33:00,42.0,40.0,-100.00,NW,305,3.0,10.0,93,0.00,,,-99.99,0.000000,,2013-01-19 13:33:00,
2013-01-19 04:02:00,39.0,37.0,-100.00,WNW,291,3.0,7.0,94,0.00,,,0.00,0.000000,,2013-01-19 14:02:00,
2013-01-19 04:12:00,39.0,37.0,-100.00,WNW,291,3.0,7.0,94,0.00,,,0.00,0.000000,,2013-01-19 14:12:00,
2013-01-19 04:22:00,39.0,37.0,-100.00,WNW,291,3.0,7.0,94,0.00,,,0.00,0.000000,,2013-01-19 14:22:00,
2013-01-19 04:33:00,39.0,37.0,-100.00,WNW,291,3.0,7.0,94,0.00,,,0.00,0.000000,,2013-01-19 14:33:00,
2013-01-19 05:03:00,38.0,36.0,-100.00,NW,318,5.0,8.0,92,0.00,,,0.00,0.000000,,2013-01-19 15:03:00,
2013-01-19 05:12:00,38.0,36.0,-100.00,NW,318,5.0,8.0,92,0.00,,,0.00,0.000000,,2013-01-19 15:12:00,
2013-01-19 05:22:00,38.0,36.0,-100.00,NW,318,5.0,8.0,92,0.00,,,0.00,0.000000,,2013-01-19 15:22:00,
2013-01-19 05:33:00,38.0,36.0,-100.00,NW,318,5.0,8.0,92,0.00,,,0.00,0.000000,,2013-01-19 15:33:00,
2013-01-19 05:53:00,41.0,21.0,-100.00,West,259,8.0,9.0,45,0.00,,,0.00,0.000000,,2013-01-19 15:53:00,
2013-01-19 06:03:00,41.0,21.0,-100.00,West,259,8.0,9.0,45,0.00,,,0.00,0.000000,,2013-01-19 16:03:00,
2013-01-19 06:12:00,41.0,21.0,-100.00,West,259,8.0,9.0,45,0.00,,,0.00,0.000000,,2013-01-19 16:12:00,
2013-01-19 06:23:00,41.0,21.0,-100.00,West,259,8.0,9.0,45,0.00,,,0.00,0.000000,,2013-01-19 16:23:00,
2013-01-19 06:32:00,41.0,21.0,-100.00,West,259,8.0,9.0,45,0.00,,,0.00,0.000000,,2013-01-19 16:32:00,
2013-01-19 07:02:00,43.0,14.0,-100.00,West,278,8.0,14.0,31,0.00,,,0.00,0.000000,,2013-01-19 17:02:00,
2013-01-19 07:15:00,43.0,14.0,-100.00,West,278,8.0,14.0,31,0.00,,,0.00,0.000000,,2013-01-19 17:15:00,
2013-01-19 07:26:00,43.0,14.0,-100.00,West,278,8.0,14.0,31,0.00,,,0.00,0.000000,,2013-01-19 17:26:00,
2013-01-19 07:33:00,43.0,14.0,-100.00,West,278,8.0,14.0,31,0.00,,,0.00,0.000000,,2013-01-19 17:33:00,
2013-01-19 07:54:00,45.0,20.0,-100.00,NNW,342,6.0,14.0,36,0.00,,,0.00,29.000000,,2013-01-19 17:54:00,
2013-01-19 08:07:00,45.0,20.0,-100.00,NNW,342,6.0,14.0,36,0.00,,,0.00,29.000000,,2013-01-19 18:07:00,
2013-01-19 08:13:00,45.0,20.0,-100.00,NNW,342,6.0,14.0,36,0.00,,,0.00,29.000000,,2013-01-19 18:13:00,
2013-01-19 08:33:00,45.0,20.0,-100.00,NNW,342,6.0,14.0,36,0.00,,,0.00,29.000000,,2013-01-19 18:33:00,
2013-01-19 08:34:00,59.0,30.0,-100.00,SE,137,2.0,13.0,33,0.00,,,0.00,255.000000,,2013-01-19 18:34:00,
2013-01-19 09:05:00,59.0,30.0,-100.00,SE,137,2.0,13.0,33,0.00,,,0.00,255.000000,,2013-01-19 19:05:00,
2013-01-19 09:17:00,59.0,30.0,-100.00,SE,137,2.0,13.0,33,0.00,,,0.00,255.000000,,2013-01-19 19:17:00,
2013-01-19 09:34:00,63.0,38.0,-100.00,South,183,3.0,9.0,39,0.00,,,0.00,504.000000,,2013-01-19 19:34:00,
2013-01-19 09:56:00,63.0,38.0,-100.00,South,183,3.0,9.0,39,0.00,,,0.00,504.000000,,2013-01-19 19:56:00,
2013-01-19 10:08:00,63.0,38.0,-100.00,South,183,3.0,9.0,39,0.00,,,0.00,504.000000,,2013-01-19 20:08:00,
2013-01-19 10:17:00,63.0,38.0,-100.00,South,183,3.0,9.0,39,0.00,,,0.00,504.000000,,2013-01-19 20:17:00,
2013-01-19 10:24:00,63.0,38.0,-100.00,South,183,3.0,9.0,39,0.00,,,0.00,504.000000,,2013-01-19 20:24:00,
2013-01-19 11:05:00,66.0,39.0,-100.00,East,92,3.0,7.0,37,0.00,,,0.00,705.000000,,2013-01-19 21:05:00,
2013-01-19 11:13:00,66.0,39.0,-100.00,East,92,3.0,7.0,37,0.00,,,0.00,705.000000,,2013-01-19 21:13:00,
2013-01-19 11:23:00,66.0,39.0,-100.00,East,92,3.0,7.0,37,0.00,,,0.00,705.000000,,2013-01-19 21:23:00,
2013-01-19 11:59:00,66.0,43.0,-100.00,ESE,116,4.0,9.0,43,0.00,,,0.00,822.000000,,2013-01-19 21:59:00,
2013-01-19 12:08:00,66.0,43.0,-100.00,ESE,116,4.0,9.0,43,0.00,,,0.00,822.000000,,2013-01-19 22:08:00,
2013-01-19 12:15:00,66.0,43.0,-100.00,ESE,116,4.0,9.0,43,0.00,,,0.00,822.000000,,2013-01-19 22:15:00,
2013-01-19 12:24:00,66.0,43.0,-100.00,ESE,116,4.0,9.0,43,0.00,,,0.00,822.000000,,2013-01-19 22:24:00,
2013-01-19 12:33:00,66.0,43.0,-100.00,ESE,116,4.0,9.0,43,0.00,,,0.00,822.000000,,2013-01-19 22:33:00,
2013-01-19 13:14:00,65.0,47.0,-100.00,SE,125,4.0,12.0,53,0.00,,,0.00,762.000000,,2013-01-19 23:14:00,
2013-01-19 13:24:00,65.0,47.0,-100.00,SE,125,4.0,12.0,53,0.00,,,0.00,762.000000,,2013-01-19 23:24:00,
2013-01-19 13:33:00,65.0,47.0,-100.00,SE,125,4.0,12.0,53,0.00,,,0.00,762.000000,,2013-01-19 23:33:00,
2013-01-19 14:06:00,61.0,50.0,-100.00,SSE,158,5.0,12.0,67,0.00,,,0.00,440.000000,,2013-01-20 00:06:00,
2013-01-19 14:24:00,61.0,50.0,-100.00,SSE,158,5.0,12.0,67,0.00,,,0.00,440.000000,,2013-01-20 00:24:00,
2013-01-19 14:33:00,61.0,50.0,-100.00,SSE,158,5.0,12.0,67,0.00,,,0.00,440.000000,,2013-01-20 00:33:00,
2013-01-19 15:03:00,64.0,51.0,-100.00,South,170,5.0,13.0,62,0.00,,,0.00,628.000000,,2013-01-20 01:03:00,
2013-01-19 15:16:00,64.0,51.0,-100.00,South,170,5.0,13.0,62,0.00,,,0.00,628.000000,,2013-01-20 01:16:00,
2013-01-19 15:24:00,64.0,51.0,-100.00,South,170,5.0,13.0,62,0.00,,,0.00,628.000000,,2013-01-20 01:24:00,
2013-01-19 15:34:00,61.0,52.0,-100.00,South,174,7.0,13.0,72,0.00,,,0.00,297.000000,,2013-01-20 01:34:00,
2013-01-19 16:05:00,61.0,52.0,-100.00,South,174,7.0,13.0,72,0.00,,,0.00,297.000000,,2013-01-20 02:05:00,
2013-01-19 16:13:00,61.0,52.0,-100.00,South,174,7.0,13.0,72,0.00,,,0.00,297.000000,,2013-01-20 02:13:00,
2013-01-19 16:24:00,61.0,52.0,-100.00,South,174,7.0,13.0,72,0.00,,,0.00,297.000000,,2013-01-20 02:24:00,
2013-01-19 16:58:00,55.0,50.0,-100.00,South,186,5.0,12.0,84,0.00,,,0.00,146.000000,,2013-01-20 02:58:00,
2013-01-19 17:06:00,55.0,50.0,-100.00,South,186,5.0,12.0,84,0.00,,,0.00,146.000000,,2013-01-20 03:06:00,
2013-01-19 17:13:00,55.0,50.0,-100.00,South,186,5.0,12.0,84,0.00,,,0.00,146.000000,,2013-01-20 03:13:00,
2013-01-19 17:33:00,55.0,50.0,-100.00,South,186,5.0,12.0,84,0.00,,,0.00,146.000000,,2013-01-20 03:33:00,
2013-01-19 17:57:00,53.0,49.0,-100.00,South,172,3.0,10.0,86,0.00,,,0.00,115.000000,,2013-01-20 03:57:00,
2013-01-19 18:04:00,53.0,49.0,-100.00,South,172,3.0,10.0,86,0.00,,,0.00,115.000000,,2013-01-20 04:04:00,
2013-01-19 18:14:00,53.0,49.0,-100.00,South,172,3.0,10.0,86,0.00,,,0.00,115.000000,,2013-01-20 04:14:00,
2013-01-19 18:23:00,53.0,49.0,-100.00,South,172,3.0,10.0,86,0.00,,,0.00,115.000000,,2013-01-20 04:23:00,
2013-01-19 18:33:00,53.0,49.0,-100.00,South,172,3.0,10.0,86,0.00,,,0.00,115.000000,,2013-01-20 04:33:00,
2013-01-19 18:56:00,47.0,44.0,-100.00,NW,311,1.0,8.0,89,0.00,,,0.00,8.000000,,2013-01-20 04:56:00,
2013-01-19 19:03:00,47.0,44.0,-100.00,NW,311,1.0,8.0,89,0.00,,,0.00,8.000000,,2013-01-20 05:03:00,
2013-01-19 19:12:00,47.0,44.0,-100.00,NW,311,1.0,8.0,89,0.00,,,0.00,8.000000,,2013-01-20 05:12:00,
2013-01-19 19:22:00,47.0,44.0,-100.00,NW,311,1.0,8.0,89,0.00,,,0.00,8.000000,,2013-01-20 05:22:00,
2013-01-19 19:32:00,47.0,44.0,-100.00,NW,311,1.0,8.0,89,0.00,,,0.00,8.000000,,2013-01-20 05:32:00,
2013-01-19 20:02:00,44.0,40.0,-100.00,North,4,3.0,6.0,86,0.00,,,0.00,0.000000,,2013-01-20 06:02:00,
2013-01-19 20:12:00,44.0,40.0,-100.00,North,4,3.0,6.0,86,0.00,,,0.00,0.000000,,2013-01-20 06:12:00,
2013-01-19 20:22:00,44.0,40.0,-100.00,North,4,3.0,6.0,86,0.00,,,0.00,0.000000,,2013-01-20 06:22:00,
2013-01-19 20:32:00,44.0,40.0,-100.00,North,4,3.0,6.0,86,0.00,,,0.00,0.000000,,2013-01-20 06:32:00,
2013-01-19 20:53:00,42.0,38.0,-100.00,NW,326,3.0,7.0,85,0.00,,,0.00,0.000000,,2013-01-20 06:53:00,
2013-01-19 21:02:00,42.0,38.0,-100.00,NW,326,3.0,7.0,85,0.00,,,0.00,0.000000,,2013-01-20 07:02:00,
2013-01-19 21:11:00,42.0,38.0,-100.00,NW,326,3.0,7.0,85,0.00,,,0.00,0.000000,,2013-01-20 07:11:00,
2013-01-19 21:22:00,42.0,38.0,-100.00,NW,326,3.0,7.0,85,0.00,,,0.00,0.000000,,2013-01-20 07:22:00,
2013-01-19 21:32:00,42.0,38.0,-100.00,NW,326,3.0,7.0,85,0.00,,,0.00,0.000000,,2013-01-20 07:32:00,
2013-01-19 21:52:00,41.0,39.0,-100.00,NW,309,4.0,7.0,93,0.00,,,0.00,0.000000,,2013-01-20 07:52:00,
2013-01-19 22:02:00,41.0,39.0,-100.00,NW,309,4.0,7.0,93,0.00,,,0.00,0.000000,,2013-01-20 08:02:00,
2013-01-19 22:12:00,41.0,39.0,-100.00,NW,309,4.0,7.0,93,0.00,,,0.00,0.000000,,2013-01-20 08:12:00,
2013-01-19 22:22:00,41.0,39.0,-100.00,NW,309,4.0,7.0,93,0.00,,,0.00,0.000000,,2013-01-20 08:22:00,
2013-01-19 22:32:00,41.0,39.0,-100.00,NW,309,4.0,7.0,93,0.00,,,0.00,0.000000,,2013-01-20 08:32:00,
2013-01-19 22:52:00,38.0,36.0,-100.00,NW,323,4.0,7.0,93,0.00,,,0.00,0.000000,,2013-01-20 08:52:00,
2013-01-19 23:02:00,38.0,36.0,-100.00,NW,323,4.0,7.0,93,0.00,,,0.00,0.000000,,2013-01-20 09:02:00,
2013-01-19 23:12:00,38.0,36.0,-100.00,NW,323,4.0,7.0,93,0.00,,,0.00,0.000000,,2013-01-20 09:12:00,
2013-01-19 23:22:00,38.0,36.0,-100.00,NW,323,4.0,7.0,93,0.00,,,0.00,0.000000,,2013-01-20 09:22:00,
2013-01-19 23:33:00,38.0,36.0,-100.00,NW,323,4.0,7.0,93,0.00,,,0.00,0.000000,,2013-01-20 09:33:00,
2013-01-19 23:53:00,36.0,32.0,-100.00,WNW,301,4.0,7.0,86,0.00,,,-99.99,0.000000,,2013-01-20 09:53:00,